createdAt,value
2022-10-19T00:04:58.546Z,0
2022-10-19T00:09:58.397Z,0
2022-10-19T00:14:58.264Z,0
2022-10-19T00:19:58.492Z,0
2022-10-19T00:24:58.752Z,0
2022-10-19T00:29:58.281Z,0
2022-10-19T00:34:58.543Z,0
2022-10-19T00:39:58.431Z,0
2022-10-19T00:44:58.191Z,0
2022-10-19T00:49:58.334Z,0
2022-10-19T00:54:58.222Z,0
2022-10-19T00:59:58.234Z,0
2022-10-19T01:04:58.228Z,0
2022-10-19T01:09:58.270Z,0
2022-10-19T01:14:58.450Z,0
2022-10-19T01:19:58.159Z,0
2022-10-19T01:24:58.164Z,0
2022-10-19T01:30:00.730Z,0
2022-10-19T01:34:58.092Z,0
2022-10-19T01:39:58.370Z,0
2022-10-19T01:44:58.241Z,0
2022-10-19T01:49:58.319Z,0
2022-10-19T01:54:58.046Z,0
2022-10-19T01:59:58.164Z,0
2022-10-19T02:04:58.297Z,0
2022-10-19T02:09:58.640Z,0
2022-10-19T02:14:58.099Z,0
2022-10-19T02:19:58.514Z,0
2022-10-19T02:24:58.310Z,0
2022-10-19T02:29:58.024Z,0
2022-10-19T02:34:58.158Z,0
2022-10-19T02:39:58.093Z,0
2022-10-19T02:44:58.024Z,0
2022-10-19T02:49:58.364Z,0
2022-10-19T02:54:58.008Z,0
2022-10-19T02:59:58.099Z,0
2022-10-19T03:04:58.419Z,0
2022-10-19T03:09:58.022Z,0
2022-10-19T03:14:58.186Z,0
2022-10-19T03:19:58.330Z,0
2022-10-19T03:24:58.056Z,0
2022-10-19T03:29:58.256Z,0
2022-10-19T03:34:58.127Z,0
2022-10-19T03:39:58.218Z,0
2022-10-19T03:44:58.316Z,0
2022-10-19T03:49:58.016Z,0
2022-10-19T03:54:58.214Z,0
2022-10-19T03:59:58.359Z,0
2022-10-19T04:04:58.525Z,0
2022-10-19T04:09:58.296Z,0
2022-10-19T04:14:58.172Z,0
2022-10-19T04:19:58.111Z,0
2022-10-19T04:24:58.171Z,0
2022-10-19T04:29:58.116Z,0
2022-10-19T04:34:57.947Z,0
2022-10-19T04:40:00.572Z,0
2022-10-19T04:45:00.550Z,0
2022-10-19T04:50:00.435Z,0
2022-10-19T04:55:00.417Z,0
2022-10-19T05:00:00.447Z,0
2022-10-19T05:05:00.341Z,0
2022-10-19T05:10:00.347Z,0
2022-10-19T05:15:00.427Z,0
2022-10-19T05:20:00.419Z,0
2022-10-19T05:25:00.213Z,0
2022-10-19T05:30:00.361Z,0
2022-10-19T05:35:00.517Z,0
2022-10-19T05:40:00.446Z,0
2022-10-19T05:45:00.287Z,0
2022-10-19T05:50:00.406Z,0
2022-10-19T05:55:00.420Z,0
2022-10-19T06:00:00.126Z,0
2022-10-19T06:05:00.319Z,0
2022-10-19T06:10:00.284Z,0.4
2022-10-19T06:15:00.336Z,1
2022-10-19T06:20:00.263Z,1.9
2022-10-19T06:25:00.400Z,3.1
2022-10-19T06:30:00.665Z,4.6
2022-10-19T06:35:00.545Z,6.2
2022-10-19T06:40:04.715Z,7.9
2022-10-19T06:45:00.547Z,9.9
2022-10-19T06:50:00.342Z,11.6
2022-10-19T06:55:00.423Z,13.2
2022-10-19T07:00:00.216Z,14.6
2022-10-19T07:05:04.444Z,17
2022-10-19T07:10:00.087Z,19
2022-10-19T07:15:00.340Z,21.2
2022-10-19T07:20:00.392Z,22.6
2022-10-19T07:25:00.410Z,25.1
2022-10-19T07:30:00.055Z,27.7
2022-10-19T07:35:00.361Z,30.6
2022-10-19T07:40:00.433Z,32
2022-10-19T07:45:00.439Z,32.1
2022-10-19T07:50:00.046Z,31.7
2022-10-19T07:55:00.019Z,32.2
2022-10-19T08:00:00.366Z,34.9
2022-10-19T08:05:03.038Z,37.9
2022-10-19T08:10:00.213Z,41.2
2022-10-19T08:15:00.321Z,44.8
2022-10-19T08:20:00.756Z,46.6
2022-10-19T08:25:00.123Z,48.3
2022-10-19T08:30:00.072Z,49.3
2022-10-19T08:35:00.368Z,51.3
2022-10-19T08:40:00.359Z,52.5
2022-10-19T08:45:00.090Z,58.1
2022-10-19T08:50:00.167Z,61.9
2022-10-19T08:54:59.940Z,61
2022-10-19T09:00:03.282Z,60.6
2022-10-19T09:05:00.134Z,62.9
2022-10-19T09:10:00.000Z,63.8
2022-10-19T09:14:59.960Z,64
2022-10-19T09:20:08.229Z,62.6
2022-10-19T09:24:59.940Z,62.2
2022-10-19T09:30:00.068Z,65.2
2022-10-19T09:35:00.167Z,70.4
2022-10-19T09:40:00.393Z,73.1
2022-10-19T09:45:00.155Z,75.5
2022-10-19T09:50:00.124Z,76.4
2022-10-19T09:55:00.821Z,78.9
2022-10-19T09:59:59.946Z,74.8
2022-10-19T10:05:00.193Z,77.2
2022-10-19T10:10:00.380Z,83.6
2022-10-19T10:15:00.168Z,88.7
2022-10-19T10:20:00.060Z,92.3
2022-10-19T10:24:59.999Z,96.3
2022-10-19T10:30:04.777Z,101.7
2022-10-19T10:35:01.489Z,104.7
2022-10-19T10:40:03.480Z,104.6
2022-10-19T10:44:59.801Z,102.6
2022-10-19T10:50:01.778Z,100.5
2022-10-19T10:55:00.013Z,100.1
2022-10-19T11:00:00.137Z,99.3
2022-10-19T11:04:59.898Z,106.5
2022-10-19T11:10:02.887Z,135.7
2022-10-19T11:15:00.025Z,179.5
2022-10-19T11:20:00.154Z,224.3
2022-10-19T11:25:00.011Z,278.9
2022-10-19T11:30:06.318Z,343.1
2022-10-19T11:35:00.075Z,416.4
2022-10-19T11:40:00.082Z,478.7
2022-10-19T11:45:00.105Z,551.7
2022-10-19T11:54:59.755Z,680.7
2022-10-19T12:00:08.345Z,743
2022-10-19T12:05:00.046Z,814.1
2022-10-19T12:09:59.790Z,836.3
2022-10-19T12:14:59.884Z,841.2
2022-10-19T12:19:59.721Z,861
2022-10-19T12:24:59.958Z,878.1
2022-10-19T12:29:59.690Z,878.1
2022-10-19T12:34:59.894Z,860.6
2022-10-19T12:40:00.029Z,841.9
2022-10-19T12:44:59.767Z,852.4
2022-10-19T12:49:59.815Z,853.9
2022-10-19T12:55:00.031Z,826.8
2022-10-19T13:00:02.997Z,641.2
2022-10-19T13:04:59.977Z,265.3
2022-10-19T13:09:59.818Z,122.5
2022-10-19T13:15:00.026Z,72.9
2022-10-19T13:20:33.309Z,56.4
2022-10-19T13:25:03.552Z,51.5
2022-10-19T13:29:59.992Z,51.9
2022-10-19T13:35:00.026Z,55.8
2022-10-19T13:40:00.654Z,60.5
2022-10-19T13:44:59.814Z,62.5
2022-10-19T13:49:59.681Z,62.8
2022-10-19T13:54:59.890Z,62.2
2022-10-19T13:59:59.736Z,61.4
2022-10-19T14:04:59.685Z,59.3
2022-10-19T14:10:03.190Z,57.5
2022-10-19T14:14:59.911Z,55.7
2022-10-19T14:19:59.782Z,54.4
2022-10-19T14:24:59.755Z,53.9
2022-10-19T14:30:00.706Z,53.8
2022-10-19T14:34:59.681Z,53.5
2022-10-19T14:40:02.470Z,49.9
2022-10-19T14:44:59.668Z,47.8
2022-10-19T14:49:59.601Z,45.6
2022-10-19T14:54:59.902Z,47
2022-10-19T15:00:00.882Z,47.7
2022-10-19T15:04:59.873Z,48.4
2022-10-19T15:10:01.974Z,49.3
2022-10-19T15:14:59.832Z,48.7
2022-10-19T15:19:59.565Z,45.4
2022-10-19T15:24:59.864Z,43.4
2022-10-19T15:29:59.563Z,42.3
2022-10-19T15:34:59.909Z,42.4
2022-10-19T15:39:59.671Z,40.1
2022-10-19T15:44:59.700Z,36.4
2022-10-19T15:49:59.827Z,32.6
2022-10-19T15:54:59.809Z,28.7
2022-10-19T15:59:59.560Z,24.8
2022-10-19T16:04:59.742Z,20.9
2022-10-19T16:09:59.709Z,18.1
2022-10-19T16:14:59.681Z,15.3
2022-10-19T16:19:59.472Z,12.8
2022-10-19T16:24:59.691Z,10.3
2022-10-19T16:29:59.533Z,7.5
2022-10-19T16:34:59.543Z,4.5
2022-10-19T16:39:59.502Z,2.2
2022-10-19T16:44:59.949Z,0.9
2022-10-19T16:49:59.558Z,0.3
2022-10-19T16:54:59.928Z,0.1
2022-10-19T16:59:59.712Z,0
2022-10-19T17:04:59.766Z,0
2022-10-19T17:09:59.747Z,0
2022-10-19T17:15:18.466Z,0
2022-10-19T17:19:59.681Z,0
2022-10-19T17:24:59.663Z,0
2022-10-19T17:29:59.575Z,0
2022-10-19T17:34:59.728Z,0
2022-10-19T17:39:59.506Z,0
2022-10-19T17:44:59.586Z,0
2022-10-19T17:49:59.446Z,0
2022-10-19T17:55:12.090Z,0
2022-10-19T17:59:59.668Z,0
2022-10-19T18:04:59.564Z,0
2022-10-19T18:09:59.680Z,0
2022-10-19T18:14:59.514Z,0
2022-10-19T18:19:59.426Z,0
2022-10-19T18:24:59.301Z,0
2022-10-19T18:29:59.848Z,0
2022-10-19T18:34:59.369Z,0
2022-10-19T18:39:59.365Z,0
2022-10-19T18:44:59.520Z,0
2022-10-19T18:49:59.400Z,0
2022-10-19T18:54:59.439Z,0
2022-10-19T18:59:59.397Z,0
2022-10-19T19:04:59.509Z,0
2022-10-19T19:09:59.594Z,0
2022-10-19T19:14:59.334Z,0
2022-10-19T19:19:59.336Z,0
2022-10-19T19:24:59.356Z,0
2022-10-19T19:29:59.882Z,0
2022-10-19T19:34:59.324Z,0
2022-10-19T19:39:59.486Z,0
2022-10-19T19:44:59.474Z,0
2022-10-19T19:49:59.550Z,0
2022-10-19T19:54:59.506Z,0
2022-10-19T19:59:59.388Z,0
2022-10-19T20:04:59.406Z,0
2022-10-19T20:09:59.400Z,0
2022-10-19T20:14:59.275Z,0
2022-10-19T20:19:59.496Z,0
2022-10-19T20:24:59.204Z,0
2022-10-19T20:29:59.448Z,0
2022-10-19T20:34:59.498Z,0
2022-10-19T20:39:59.205Z,0
2022-10-19T20:44:59.364Z,0
2022-10-19T20:49:59.453Z,0
2022-10-19T20:54:59.317Z,0
2022-10-19T20:59:59.361Z,0
2022-10-19T21:04:59.525Z,0
2022-10-19T21:09:59.383Z,0
2022-10-19T21:14:59.212Z,0
2022-10-19T21:19:59.508Z,0
2022-10-19T21:24:59.386Z,0
2022-10-19T21:29:59.371Z,0
2022-10-19T21:34:59.539Z,0
2022-10-19T21:39:59.096Z,0
2022-10-19T21:45:06.285Z,0
2022-10-19T21:49:59.459Z,0
2022-10-19T21:54:59.173Z,0
2022-10-19T21:59:59.111Z,0
2022-10-19T22:04:59.277Z,0
2022-10-19T22:09:59.440Z,0
2022-10-19T22:14:59.370Z,0
2022-10-19T22:19:59.274Z,0
2022-10-19T22:24:59.393Z,0
2022-10-19T22:29:59.368Z,0
2022-10-19T22:34:59.277Z,0
2022-10-19T22:39:59.272Z,0
2022-10-19T22:44:59.357Z,0
2022-10-19T22:49:59.081Z,0
2022-10-19T22:54:59.069Z,0
2022-10-19T22:59:59.063Z,0
2022-10-19T23:04:59.301Z,0
2022-10-19T23:09:59.379Z,0
2022-10-19T23:14:59.503Z,0
2022-10-19T23:19:59.085Z,0
2022-10-19T23:24:59.026Z,0
2022-10-19T23:29:59.068Z,0
2022-10-19T23:34:59.176Z,0
2022-10-19T23:39:59.257Z,0
2022-10-19T23:44:59.209Z,0
2022-10-19T23:49:59.307Z,0
2022-10-19T23:54:59.344Z,0
2022-10-19T23:59:59.036Z,0
